sensor_id;sensor_type;location;lat;lon;timestamp;temperature;humidity
52459;DHT22;38372;52.902;6.024;2023-12-28T00:00:43;9.40;99.90
52459;DHT22;38372;52.902;6.024;2023-12-28T00:03:10;9.50;99.90
52459;DHT22;38372;52.902;6.024;2023-12-28T00:05:35;9.50;99.90
52459;DHT22;38372;52.902;6.024;2023-12-28T00:08:01;9.60;99.90
52459;DHT22;38372;52.902;6.024;2023-12-28T00:10:29;9.60;99.90
52459;DHT22;38372;52.902;6.024;2023-12-28T00:12:54;9.60;99.90
52459;DHT22;38372;52.902;6.024;2023-12-28T00:15:21;9.60;99.90
52459;DHT22;38372;52.902;6.024;2023-12-28T00:17:47;9.60;99.90
52459;DHT22;38372;52.902;6.024;2023-12-28T00:20:13;9.60;99.90
52459;DHT22;38372;52.902;6.024;2023-12-28T00:22:39;9.70;99.90
52459;DHT22;38372;52.902;6.024;2023-12-28T00:25:14;9.70;99.90
52459;DHT22;38372;52.902;6.024;2023-12-28T00:27:40;9.70;99.90
52459;DHT22;38372;52.902;6.024;2023-12-28T00:30:06;9.60;99.90
52459;DHT22;38372;52.902;6.024;2023-12-28T00:32:32;9.70;99.90
52459;DHT22;38372;52.902;6.024;2023-12-28T00:34:57;9.70;99.90
52459;DHT22;38372;52.902;6.024;2023-12-28T00:37:23;9.70;99.90
52459;DHT22;38372;52.902;6.024;2023-12-28T00:39:50;9.70;99.90
52459;DHT22;38372;52.902;6.024;2023-12-28T00:42:18;9.60;99.90
52459;DHT22;38372;52.902;6.024;2023-12-28T00:44:45;9.60;99.90
52459;DHT22;38372;52.902;6.024;2023-12-28T00:47:10;9.60;99.90
52459;DHT22;38372;52.902;6.024;2023-12-28T00:49:36;9.60;99.90
52459;DHT22;38372;52.902;6.024;2023-12-28T00:52:02;9.50;99.90
52459;DHT22;38372;52.902;6.024;2023-12-28T00:54:28;9.50;99.90
52459;DHT22;38372;52.902;6.024;2023-12-28T00:56:54;9.50;99.90
52459;DHT22;38372;52.902;6.024;2023-12-28T00:59:19;9.50;99.90
52459;DHT22;38372;52.902;6.024;2023-12-28T01:01:45;9.40;99.90
52459;DHT22;38372;52.902;6.024;2023-12-28T01:04:11;9.50;99.90
52459;DHT22;38372;52.902;6.024;2023-12-28T01:06:37;9.40;99.90
52459;DHT22;38372;52.902;6.024;2023-12-28T01:09:02;9.40;99.90
52459;DHT22;38372;52.902;6.024;2023-12-28T01:11:28;9.30;99.90
52459;DHT22;38372;52.902;6.024;2023-12-28T01:13:54;9.40;99.90
52459;DHT22;38372;52.902;6.024;2023-12-28T01:16:20;9.30;99.90
52459;DHT22;38372;52.902;6.024;2023-12-28T01:18:46;9.30;99.90
52459;DHT22;38372;52.902;6.024;2023-12-28T01:21:12;9.30;99.90
52459;DHT22;38372;52.902;6.024;2023-12-28T01:23:38;9.30;99.90
52459;DHT22;38372;52.902;6.024;2023-12-28T01:26:03;9.30;99.90
52459;DHT22;38372;52.902;6.024;2023-12-28T01:28:29;9.30;99.90
52459;DHT22;38372;52.902;6.024;2023-12-28T01:30:55;9.30;99.90
52459;DHT22;38372;52.902;6.024;2023-12-28T01:33:21;9.30;99.90
52459;DHT22;38372;52.902;6.024;2023-12-28T01:35:47;9.30;99.90
52459;DHT22;38372;52.902;6.024;2023-12-28T01:38:13;9.30;99.90
52459;DHT22;38372;52.902;6.024;2023-12-28T01:40:44;9.30;99.90
52459;DHT22;38372;52.902;6.024;2023-12-28T01:43:10;9.20;99.90
52459;DHT22;38372;52.902;6.024;2023-12-28T01:45:36;9.20;99.90
52459;DHT22;38372;52.902;6.024;2023-12-28T01:48:02;9.20;99.90
52459;DHT22;38372;52.902;6.024;2023-12-28T01:50:28;9.10;99.90
52459;DHT22;38372;52.902;6.024;2023-12-28T01:52:55;9.10;99.90
52459;DHT22;38372;52.902;6.024;2023-12-28T01:55:22;9.10;99.90
52459;DHT22;38372;52.902;6.024;2023-12-28T01:57:48;9.10;99.90
52459;DHT22;38372;52.902;6.024;2023-12-28T02:00:14;9.20;99.90
52459;DHT22;38372;52.902;6.024;2023-12-28T02:02:40;9.20;99.90
52459;DHT22;38372;52.902;6.024;2023-12-28T02:05:08;9.20;99.90
52459;DHT22;38372;52.902;6.024;2023-12-28T02:07:36;9.20;99.90
52459;DHT22;38372;52.902;6.024;2023-12-28T02:10:02;9.20;99.90
52459;DHT22;38372;52.902;6.024;2023-12-28T02:12:28;9.20;99.90
52459;DHT22;38372;52.902;6.024;2023-12-28T02:14:54;9.30;99.90
52459;DHT22;38372;52.902;6.024;2023-12-28T02:17:25;9.30;99.90
52459;DHT22;38372;52.902;6.024;2023-12-28T02:19:55;9.30;99.90
52459;DHT22;38372;52.902;6.024;2023-12-28T02:22:24;9.30;99.90
52459;DHT22;38372;52.902;6.024;2023-12-28T02:25:01;9.30;99.90
52459;DHT22;38372;52.902;6.024;2023-12-28T02:27:27;9.30;99.90
52459;DHT22;38372;52.902;6.024;2023-12-28T02:29:55;9.40;99.90
52459;DHT22;38372;52.902;6.024;2023-12-28T02:32:24;9.40;99.90
52459;DHT22;38372;52.902;6.024;2023-12-28T02:34:55;9.40;99.90
52459;DHT22;38372;52.902;6.024;2023-12-28T02:37:24;9.50;99.90
52459;DHT22;38372;52.902;6.024;2023-12-28T02:39:51;9.50;99.90
52459;DHT22;38372;52.902;6.024;2023-12-28T02:42:19;9.50;99.90
52459;DHT22;38372;52.902;6.024;2023-12-28T02:44:44;9.60;99.90
52459;DHT22;38372;52.902;6.024;2023-12-28T02:47:10;9.60;99.90
52459;DHT22;38372;52.902;6.024;2023-12-28T02:49:36;9.60;99.90
52459;DHT22;38372;52.902;6.024;2023-12-28T02:52:02;9.70;99.90
52459;DHT22;38372;52.902;6.024;2023-12-28T02:54:28;9.70;99.90
52459;DHT22;38372;52.902;6.024;2023-12-28T02:56:54;9.70;99.90
52459;DHT22;38372;52.902;6.024;2023-12-28T02:59:20;9.70;99.90
52459;DHT22;38372;52.902;6.024;2023-12-28T03:01:45;9.70;99.90
52459;DHT22;38372;52.902;6.024;2023-12-28T03:04:11;9.70;99.90
52459;DHT22;38372;52.902;6.024;2023-12-28T03:06:37;9.70;99.90
52459;DHT22;38372;52.902;6.024;2023-12-28T03:09:05;9.70;99.90
52459;DHT22;38372;52.902;6.024;2023-12-28T03:11:31;9.70;99.90
52459;DHT22;38372;52.902;6.024;2023-12-28T03:13:56;9.70;99.90
52459;DHT22;38372;52.902;6.024;2023-12-28T03:16:22;9.80;99.90
52459;DHT22;38372;52.902;6.024;2023-12-28T03:18:48;9.80;99.90
52459;DHT22;38372;52.902;6.024;2023-12-28T03:21:13;9.80;99.90
52459;DHT22;38372;52.902;6.024;2023-12-28T03:23:39;9.80;99.90
52459;DHT22;38372;52.902;6.024;2023-12-28T03:26:05;9.90;99.90
52459;DHT22;38372;52.902;6.024;2023-12-28T03:28:31;9.90;99.90
52459;DHT22;38372;52.902;6.024;2023-12-28T03:30:56;9.90;99.90
52459;DHT22;38372;52.902;6.024;2023-12-28T03:33:23;9.90;99.90
52459;DHT22;38372;52.902;6.024;2023-12-28T03:35:49;9.90;99.90
52459;DHT22;38372;52.902;6.024;2023-12-28T03:38:16;9.90;99.90
52459;DHT22;38372;52.902;6.024;2023-12-28T03:40:42;10.00;99.90
52459;DHT22;38372;52.902;6.024;2023-12-28T03:43:08;10.00;99.90
52459;DHT22;38372;52.902;6.024;2023-12-28T03:45:34;9.90;99.90
52459;DHT22;38372;52.902;6.024;2023-12-28T03:48:00;9.90;99.90
52459;DHT22;38372;52.902;6.024;2023-12-28T03:50:25;10.00;99.90
52459;DHT22;38372;52.902;6.024;2023-12-28T03:52:51;10.00;99.90
52459;DHT22;38372;52.902;6.024;2023-12-28T03:55:17;10.00;99.90
52459;DHT22;38372;52.902;6.024;2023-12-28T03:57:43;10.00;99.90
52459;DHT22;38372;52.902;6.024;2023-12-28T04:00:11;10.00;99.90
52459;DHT22;38372;52.902;6.024;2023-12-28T04:02:37;9.90;99.90
52459;DHT22;38372;52.902;6.024;2023-12-28T04:05:03;9.90;99.90
52459;DHT22;38372;52.902;6.024;2023-12-28T04:07:29;9.90;99.90
52459;DHT22;38372;52.902;6.024;2023-12-28T04:09:55;9.90;99.90
52459;DHT22;38372;52.902;6.024;2023-12-28T04:12:21;9.90;99.90
52459;DHT22;38372;52.902;6.024;2023-12-28T04:14:47;9.80;99.90
52459;DHT22;38372;52.902;6.024;2023-12-28T04:17:13;9.80;99.90
52459;DHT22;38372;52.902;6.024;2023-12-28T04:19:39;9.80;99.90
52459;DHT22;38372;52.902;6.024;2023-12-28T04:22:04;9.80;99.90
52459;DHT22;38372;52.902;6.024;2023-12-28T04:24:30;9.70;99.90
52459;DHT22;38372;52.902;6.024;2023-12-28T04:26:56;9.80;99.90
52459;DHT22;38372;52.902;6.024;2023-12-28T04:29:22;9.80;99.90
52459;DHT22;38372;52.902;6.024;2023-12-28T04:31:48;9.80;99.90
52459;DHT22;38372;52.902;6.024;2023-12-28T04:34:13;9.80;99.90
52459;DHT22;38372;52.902;6.024;2023-12-28T04:36:40;9.80;99.90
52459;DHT22;38372;52.902;6.024;2023-12-28T04:39:07;9.80;99.90
52459;DHT22;38372;52.902;6.024;2023-12-28T04:41:33;9.90;99.90
52459;DHT22;38372;52.902;6.024;2023-12-28T04:43:59;9.90;99.90
52459;DHT22;38372;52.902;6.024;2023-12-28T04:46:24;9.90;99.90
52459;DHT22;38372;52.902;6.024;2023-12-28T04:48:50;9.90;99.90
52459;DHT22;38372;52.902;6.024;2023-12-28T04:51:16;10.00;99.90
52459;DHT22;38372;52.902;6.024;2023-12-28T04:53:42;10.10;99.90
52459;DHT22;38372;52.902;6.024;2023-12-28T04:56:07;10.10;99.90
52459;DHT22;38372;52.902;6.024;2023-12-28T04:58:33;10.10;99.90
52459;DHT22;38372;52.902;6.024;2023-12-28T05:01:01;10.10;99.90
52459;DHT22;38372;52.902;6.024;2023-12-28T05:03:27;10.20;99.90
52459;DHT22;38372;52.902;6.024;2023-12-28T05:05:53;10.20;99.90
52459;DHT22;38372;52.902;6.024;2023-12-28T05:08:18;10.20;99.90
52459;DHT22;38372;52.902;6.024;2023-12-28T05:10:44;10.20;99.90
52459;DHT22;38372;52.902;6.024;2023-12-28T05:13:10;10.20;99.90
52459;DHT22;38372;52.902;6.024;2023-12-28T05:15:36;10.20;99.90
52459;DHT22;38372;52.902;6.024;2023-12-28T05:18:02;10.20;99.90
52459;DHT22;38372;52.902;6.024;2023-12-28T05:20:27;10.20;99.90
52459;DHT22;38372;52.902;6.024;2023-12-28T05:22:53;10.20;99.90
52459;DHT22;38372;52.902;6.024;2023-12-28T05:25:19;10.20;99.90
52459;DHT22;38372;52.902;6.024;2023-12-28T05:27:45;10.20;99.90
52459;DHT22;38372;52.902;6.024;2023-12-28T05:30:10;10.20;99.90
52459;DHT22;38372;52.902;6.024;2023-12-28T05:32:37;10.20;99.90
52459;DHT22;38372;52.902;6.024;2023-12-28T05:35:03;10.20;99.90
52459;DHT22;38372;52.902;6.024;2023-12-28T05:37:29;10.20;99.90
52459;DHT22;38372;52.902;6.024;2023-12-28T05:39:55;10.20;99.90
52459;DHT22;38372;52.902;6.024;2023-12-28T05:42:21;10.30;99.90
52459;DHT22;38372;52.902;6.024;2023-12-28T05:44:46;10.30;99.90
52459;DHT22;38372;52.902;6.024;2023-12-28T05:47:12;10.30;99.90
52459;DHT22;38372;52.902;6.024;2023-12-28T05:49:38;10.30;99.90
52459;DHT22;38372;52.902;6.024;2023-12-28T05:52:04;10.30;99.90
52459;DHT22;38372;52.902;6.024;2023-12-28T05:54:29;10.30;99.90
52459;DHT22;38372;52.902;6.024;2023-12-28T05:56:55;10.30;99.90
52459;DHT22;38372;52.902;6.024;2023-12-28T05:59:21;10.30;99.90
52459;DHT22;38372;52.902;6.024;2023-12-28T06:01:47;10.30;99.90
52459;DHT22;38372;52.902;6.024;2023-12-28T06:04:13;10.30;99.90
52459;DHT22;38372;52.902;6.024;2023-12-28T06:06:39;10.40;99.90
52459;DHT22;38372;52.902;6.024;2023-12-28T06:09:05;10.40;99.90
52459;DHT22;38372;52.902;6.024;2023-12-28T06:11:31;10.40;99.90
52459;DHT22;38372;52.902;6.024;2023-12-28T06:13:57;10.30;99.90
52459;DHT22;38372;52.902;6.024;2023-12-28T06:16:23;10.40;99.90
52459;DHT22;38372;52.902;6.024;2023-12-28T06:18:48;10.40;99.90
52459;DHT22;38372;52.902;6.024;2023-12-28T06:21:14;10.40;99.90
52459;DHT22;38372;52.902;6.024;2023-12-28T06:23:40;10.40;99.90
52459;DHT22;38372;52.902;6.024;2023-12-28T06:26:06;10.50;99.90
52459;DHT22;38372;52.902;6.024;2023-12-28T06:28:32;10.50;99.90
52459;DHT22;38372;52.902;6.024;2023-12-28T06:30:58;10.50;99.90
52459;DHT22;38372;52.902;6.024;2023-12-28T06:33:27;10.50;99.90
52459;DHT22;38372;52.902;6.024;2023-12-28T06:35:54;10.50;99.90
52459;DHT22;38372;52.902;6.024;2023-12-28T06:38:19;10.50;99.90
52459;DHT22;38372;52.902;6.024;2023-12-28T06:40:45;10.50;99.90
52459;DHT22;38372;52.902;6.024;2023-12-28T06:43:11;10.50;99.90
52459;DHT22;38372;52.902;6.024;2023-12-28T06:45:37;10.50;99.90
52459;DHT22;38372;52.902;6.024;2023-12-28T06:48:04;10.50;99.90
52459;DHT22;38372;52.902;6.024;2023-12-28T06:50:30;10.50;99.90
52459;DHT22;38372;52.902;6.024;2023-12-28T06:52:56;10.50;99.90
52459;DHT22;38372;52.902;6.024;2023-12-28T06:55:22;10.50;99.90
52459;DHT22;38372;52.902;6.024;2023-12-28T06:57:48;10.50;99.90
52459;DHT22;38372;52.902;6.024;2023-12-28T07:00:14;10.60;99.90
52459;DHT22;38372;52.902;6.024;2023-12-28T07:02:40;10.60;99.90
52459;DHT22;38372;52.902;6.024;2023-12-28T07:05:06;10.60;99.90
52459;DHT22;38372;52.902;6.024;2023-12-28T07:07:32;10.60;99.90
52459;DHT22;38372;52.902;6.024;2023-12-28T07:09:58;10.60;99.90
52459;DHT22;38372;52.902;6.024;2023-12-28T07:12:23;10.60;99.90
52459;DHT22;38372;52.902;6.024;2023-12-28T07:14:49;10.60;99.90
52459;DHT22;38372;52.902;6.024;2023-12-28T07:17:15;10.60;99.90
52459;DHT22;38372;52.902;6.024;2023-12-28T07:19:43;10.60;99.90
52459;DHT22;38372;52.902;6.024;2023-12-28T07:22:09;10.60;99.90
52459;DHT22;38372;52.902;6.024;2023-12-28T07:24:35;10.60;99.90
52459;DHT22;38372;52.902;6.024;2023-12-28T07:27:01;10.50;99.90
52459;DHT22;38372;52.902;6.024;2023-12-28T07:29:26;10.50;99.90
52459;DHT22;38372;52.902;6.024;2023-12-28T07:31:53;10.50;99.90
52459;DHT22;38372;52.902;6.024;2023-12-28T07:34:19;10.50;99.90
52459;DHT22;38372;52.902;6.024;2023-12-28T07:36:45;10.50;99.90
52459;DHT22;38372;52.902;6.024;2023-12-28T07:39:11;10.60;99.90
52459;DHT22;38372;52.902;6.024;2023-12-28T07:41:37;10.60;99.90
52459;DHT22;38372;52.902;6.024;2023-12-28T07:44:03;10.60;99.90
52459;DHT22;38372;52.902;6.024;2023-12-28T07:46:28;10.60;99.90
52459;DHT22;38372;52.902;6.024;2023-12-28T07:48:54;10.60;99.90
52459;DHT22;38372;52.902;6.024;2023-12-28T07:51:20;10.60;99.90
52459;DHT22;38372;52.902;6.024;2023-12-28T07:53:46;10.70;99.90
52459;DHT22;38372;52.902;6.024;2023-12-28T07:56:11;10.60;99.90
52459;DHT22;38372;52.902;6.024;2023-12-28T07:58:37;10.60;99.90
52459;DHT22;38372;52.902;6.024;2023-12-28T08:01:10;10.60;99.90
52459;DHT22;38372;52.902;6.024;2023-12-28T08:03:36;10.60;99.90
52459;DHT22;38372;52.902;6.024;2023-12-28T08:06:03;10.70;99.90
52459;DHT22;38372;52.902;6.024;2023-12-28T08:08:28;10.70;99.90
52459;DHT22;38372;52.902;6.024;2023-12-28T08:10:54;10.70;99.90
52459;DHT22;38372;52.902;6.024;2023-12-28T08:13:20;10.70;99.90
52459;DHT22;38372;52.902;6.024;2023-12-28T08:15:46;10.70;99.90
52459;DHT22;38372;52.902;6.024;2023-12-28T08:18:12;10.70;99.90
52459;DHT22;38372;52.902;6.024;2023-12-28T08:20:38;10.70;99.90
52459;DHT22;38372;52.902;6.024;2023-12-28T08:23:04;10.70;99.90
52459;DHT22;38372;52.902;6.024;2023-12-28T08:25:29;10.80;99.90
52459;DHT22;38372;52.902;6.024;2023-12-28T08:27:55;10.80;99.90
52459;DHT22;38372;52.902;6.024;2023-12-28T08:30:21;10.80;99.90
52459;DHT22;38372;52.902;6.024;2023-12-28T08:32:47;10.80;99.90
52459;DHT22;38372;52.902;6.024;2023-12-28T08:35:13;10.80;99.90
52459;DHT22;38372;52.902;6.024;2023-12-28T08:37:38;10.80;99.90
52459;DHT22;38372;52.902;6.024;2023-12-28T08:40:05;10.90;99.90
52459;DHT22;38372;52.902;6.024;2023-12-28T08:42:31;10.90;99.90
52459;DHT22;38372;52.902;6.024;2023-12-28T08:44:57;10.90;99.90
52459;DHT22;38372;52.902;6.024;2023-12-28T08:47:22;10.90;99.90
52459;DHT22;38372;52.902;6.024;2023-12-28T08:49:48;10.90;99.90
52459;DHT22;38372;52.902;6.024;2023-12-28T08:52:15;10.90;99.90
52459;DHT22;38372;52.902;6.024;2023-12-28T08:54:40;10.90;99.90
52459;DHT22;38372;52.902;6.024;2023-12-28T08:57:06;10.90;99.90
52459;DHT22;38372;52.902;6.024;2023-12-28T08:59:36;10.90;99.90
52459;DHT22;38372;52.902;6.024;2023-12-28T09:02:02;10.90;99.90
52459;DHT22;38372;52.902;6.024;2023-12-28T09:04:28;10.90;99.90
52459;DHT22;38372;52.902;6.024;2023-12-28T09:06:53;10.90;99.90
52459;DHT22;38372;52.902;6.024;2023-12-28T09:09:19;10.90;99.90
52459;DHT22;38372;52.902;6.024;2023-12-28T09:11:45;10.90;99.90
52459;DHT22;38372;52.902;6.024;2023-12-28T09:14:11;10.80;99.90
52459;DHT22;38372;52.902;6.024;2023-12-28T09:16:37;10.90;99.90
52459;DHT22;38372;52.902;6.024;2023-12-28T09:19:04;10.90;99.90
52459;DHT22;38372;52.902;6.024;2023-12-28T09:21:30;10.90;99.90
52459;DHT22;38372;52.902;6.024;2023-12-28T09:23:56;10.90;99.90
52459;DHT22;38372;52.902;6.024;2023-12-28T09:26:22;10.90;99.90
52459;DHT22;38372;52.902;6.024;2023-12-28T09:28:47;11.00;99.90
52459;DHT22;38372;52.902;6.024;2023-12-28T09:31:13;11.00;99.90
52459;DHT22;38372;52.902;6.024;2023-12-28T09:33:39;11.00;99.90
52459;DHT22;38372;52.902;6.024;2023-12-28T09:36:05;11.00;99.90
52459;DHT22;38372;52.902;6.024;2023-12-28T09:38:31;11.10;99.90
52459;DHT22;38372;52.902;6.024;2023-12-28T09:40:58;11.10;99.90
52459;DHT22;38372;52.902;6.024;2023-12-28T09:43:31;11.10;99.90
52459;DHT22;38372;52.902;6.024;2023-12-28T09:46:06;11.10;99.90
52459;DHT22;38372;52.902;6.024;2023-12-28T09:48:37;11.10;99.90
52459;DHT22;38372;52.902;6.024;2023-12-28T09:51:04;11.10;99.90
52459;DHT22;38372;52.902;6.024;2023-12-28T09:53:31;11.10;99.90
52459;DHT22;38372;52.902;6.024;2023-12-28T09:55:57;11.10;99.90
52459;DHT22;38372;52.902;6.024;2023-12-28T09:58:24;11.10;99.90
52459;DHT22;38372;52.902;6.024;2023-12-28T10:00:51;11.20;99.90
52459;DHT22;38372;52.902;6.024;2023-12-28T10:03:17;11.20;99.90
52459;DHT22;38372;52.902;6.024;2023-12-28T10:05:44;11.20;99.90
52459;DHT22;38372;52.902;6.024;2023-12-28T10:08:15;11.10;99.90
52459;DHT22;38372;52.902;6.024;2023-12-28T10:10:41;11.20;99.90
52459;DHT22;38372;52.902;6.024;2023-12-28T10:13:08;11.20;99.90
52459;DHT22;38372;52.902;6.024;2023-12-28T10:15:35;11.10;99.90
52459;DHT22;38372;52.902;6.024;2023-12-28T10:18:01;11.20;99.90
52459;DHT22;38372;52.902;6.024;2023-12-28T10:20:29;11.20;99.90
52459;DHT22;38372;52.902;6.024;2023-12-28T10:22:55;11.20;99.90
52459;DHT22;38372;52.902;6.024;2023-12-28T10:25:20;11.30;99.90
52459;DHT22;38372;52.902;6.024;2023-12-28T10:27:50;11.30;99.90
52459;DHT22;38372;52.902;6.024;2023-12-28T10:30:17;11.40;99.90
52459;DHT22;38372;52.902;6.024;2023-12-28T10:32:45;11.40;99.90
52459;DHT22;38372;52.902;6.024;2023-12-28T10:35:12;11.30;99.90
52459;DHT22;38372;52.902;6.024;2023-12-28T10:37:40;11.30;99.90
52459;DHT22;38372;52.902;6.024;2023-12-28T10:40:08;11.20;99.90
52459;DHT22;38372;52.902;6.024;2023-12-28T10:45:11;11.20;99.90
52459;DHT22;38372;52.902;6.024;2023-12-28T10:47:37;11.20;99.90
52459;DHT22;38372;52.902;6.024;2023-12-28T10:50:05;11.20;99.90
52459;DHT22;38372;52.902;6.024;2023-12-28T10:52:32;11.10;99.90
52459;DHT22;38372;52.902;6.024;2023-12-28T11:00:33;11.10;99.90
52459;DHT22;38372;52.902;6.024;2023-12-28T11:03:03;11.10;99.90
52459;DHT22;38372;52.902;6.024;2023-12-28T11:05:31;11.10;99.90
52459;DHT22;38372;52.902;6.024;2023-12-28T11:07:59;11.10;99.90
52459;DHT22;38372;52.902;6.024;2023-12-28T11:10:26;11.10;99.90
52459;DHT22;38372;52.902;6.024;2023-12-28T11:12:56;11.10;99.90
52459;DHT22;38372;52.902;6.024;2023-12-28T11:15:22;11.10;99.90
52459;DHT22;38372;52.902;6.024;2023-12-28T11:17:58;11.10;99.90
52459;DHT22;38372;52.902;6.024;2023-12-28T11:20:24;11.10;99.90
52459;DHT22;38372;52.902;6.024;2023-12-28T11:22:51;11.10;99.90
52459;DHT22;38372;52.902;6.024;2023-12-28T11:25:18;11.10;99.90
52459;DHT22;38372;52.902;6.024;2023-12-28T11:27:45;11.20;99.90
52459;DHT22;38372;52.902;6.024;2023-12-28T11:30:12;11.20;99.90
52459;DHT22;38372;52.902;6.024;2023-12-28T11:32:40;11.20;99.90
52459;DHT22;38372;52.902;6.024;2023-12-28T11:35:08;11.20;99.90
52459;DHT22;38372;52.902;6.024;2023-12-28T11:37:38;11.20;99.90
52459;DHT22;38372;52.902;6.024;2023-12-28T11:40:13;11.30;99.90
52459;DHT22;38372;52.902;6.024;2023-12-28T11:42:52;11.30;99.90
52459;DHT22;38372;52.902;6.024;2023-12-28T11:45:19;11.40;99.90
52459;DHT22;38372;52.902;6.024;2023-12-28T11:47:45;11.30;99.90
52459;DHT22;38372;52.902;6.024;2023-12-28T11:50:12;11.40;99.90
52459;DHT22;38372;52.902;6.024;2023-12-28T11:52:38;11.40;99.90
52459;DHT22;38372;52.902;6.024;2023-12-28T11:55:04;11.40;99.90
52459;DHT22;38372;52.902;6.024;2023-12-28T11:57:30;11.40;99.90
52459;DHT22;38372;52.902;6.024;2023-12-28T11:59:58;11.40;99.90
52459;DHT22;38372;52.902;6.024;2023-12-28T12:02:25;11.30;99.90
52459;DHT22;38372;52.902;6.024;2023-12-28T12:04:51;11.30;99.90
52459;DHT22;38372;52.902;6.024;2023-12-28T12:07:17;11.40;99.90
52459;DHT22;38372;52.902;6.024;2023-12-28T12:09:43;11.30;99.90
52459;DHT22;38372;52.902;6.024;2023-12-28T12:12:09;11.30;99.90
52459;DHT22;38372;52.902;6.024;2023-12-28T12:14:35;11.30;99.90
52459;DHT22;38372;52.902;6.024;2023-12-28T12:17:02;11.30;99.90
52459;DHT22;38372;52.902;6.024;2023-12-28T12:19:28;11.20;99.90
52459;DHT22;38372;52.902;6.024;2023-12-28T12:21:54;11.20;99.90
52459;DHT22;38372;52.902;6.024;2023-12-28T12:24:21;11.20;99.90
52459;DHT22;38372;52.902;6.024;2023-12-28T12:26:47;11.20;99.90
52459;DHT22;38372;52.902;6.024;2023-12-28T12:29:14;11.10;99.90
52459;DHT22;38372;52.902;6.024;2023-12-28T12:31:44;11.10;99.90
52459;DHT22;38372;52.902;6.024;2023-12-28T12:34:11;11.20;99.90
52459;DHT22;38372;52.902;6.024;2023-12-28T12:36:38;11.20;99.90
52459;DHT22;38372;52.902;6.024;2023-12-28T12:39:04;11.20;99.90
52459;DHT22;38372;52.902;6.024;2023-12-28T12:41:34;11.20;99.90
52459;DHT22;38372;52.902;6.024;2023-12-28T12:44:00;11.20;99.90
52459;DHT22;38372;52.902;6.024;2023-12-28T12:46:26;11.20;99.90
52459;DHT22;38372;52.902;6.024;2023-12-28T12:48:59;11.10;99.90
52459;DHT22;38372;52.902;6.024;2023-12-28T12:51:27;11.10;99.90
52459;DHT22;38372;52.902;6.024;2023-12-28T12:53:59;11.20;99.90
52459;DHT22;38372;52.902;6.024;2023-12-28T12:56:26;11.10;99.90
52459;DHT22;38372;52.902;6.024;2023-12-28T12:58:56;11.10;99.90
52459;DHT22;38372;52.902;6.024;2023-12-28T13:01:26;11.10;99.90
52459;DHT22;38372;52.902;6.024;2023-12-28T13:03:52;11.10;99.90
52459;DHT22;38372;52.902;6.024;2023-12-28T13:06:18;11.10;99.90
52459;DHT22;38372;52.902;6.024;2023-12-28T13:08:44;11.10;99.90
52459;DHT22;38372;52.902;6.024;2023-12-28T13:11:09;11.10;99.90
52459;DHT22;38372;52.902;6.024;2023-12-28T13:13:36;11.10;99.90
52459;DHT22;38372;52.902;6.024;2023-12-28T13:16:02;11.10;99.90
52459;DHT22;38372;52.902;6.024;2023-12-28T13:18:28;11.10;99.90
52459;DHT22;38372;52.902;6.024;2023-12-28T13:20:54;11.00;99.90
52459;DHT22;38372;52.902;6.024;2023-12-28T13:23:20;11.10;99.90
52459;DHT22;38372;52.902;6.024;2023-12-28T13:25:46;11.00;99.90
52459;DHT22;38372;52.902;6.024;2023-12-28T13:28:12;11.00;99.90
52459;DHT22;38372;52.902;6.024;2023-12-28T13:30:39;11.10;99.90
52459;DHT22;38372;52.902;6.024;2023-12-28T13:33:05;11.00;99.90
52459;DHT22;38372;52.902;6.024;2023-12-28T13:35:31;11.00;99.90
52459;DHT22;38372;52.902;6.024;2023-12-28T13:38:01;11.00;99.90
52459;DHT22;38372;52.902;6.024;2023-12-28T13:40:28;10.90;99.90
52459;DHT22;38372;52.902;6.024;2023-12-28T13:42:54;10.90;99.90
52459;DHT22;38372;52.902;6.024;2023-12-28T13:45:22;10.90;99.90
52459;DHT22;38372;52.902;6.024;2023-12-28T13:47:49;11.00;99.90
52459;DHT22;38372;52.902;6.024;2023-12-28T13:50:15;11.00;99.90
52459;DHT22;38372;52.902;6.024;2023-12-28T13:55:51;10.90;99.90
52459;DHT22;38372;52.902;6.024;2023-12-28T13:58:17;11.00;99.90
52459;DHT22;38372;52.902;6.024;2023-12-28T14:00:42;11.00;99.90
52459;DHT22;38372;52.902;6.024;2023-12-28T14:03:08;11.00;99.90
52459;DHT22;38372;52.902;6.024;2023-12-28T14:05:34;11.00;99.90
52459;DHT22;38372;52.902;6.024;2023-12-28T14:08:00;10.90;99.90
52459;DHT22;38372;52.902;6.024;2023-12-28T14:10:26;10.90;99.90
52459;DHT22;38372;52.902;6.024;2023-12-28T14:12:51;10.80;99.90
52459;DHT22;38372;52.902;6.024;2023-12-28T14:15:17;10.80;99.90
52459;DHT22;38372;52.902;6.024;2023-12-28T14:17:44;10.70;99.90
52459;DHT22;38372;52.902;6.024;2023-12-28T14:20:10;10.60;99.90
52459;DHT22;38372;52.902;6.024;2023-12-28T14:22:39;10.60;99.90
52459;DHT22;38372;52.902;6.024;2023-12-28T14:25:05;10.50;99.90
52459;DHT22;38372;52.902;6.024;2023-12-28T14:27:32;10.40;99.90
52459;DHT22;38372;52.902;6.024;2023-12-28T14:29:58;10.20;99.90
52459;DHT22;38372;52.902;6.024;2023-12-28T14:32:24;10.10;99.90
52459;DHT22;38372;52.902;6.024;2023-12-28T14:34:50;10.00;99.90
52459;DHT22;38372;52.902;6.024;2023-12-28T14:37:16;10.00;99.90
52459;DHT22;38372;52.902;6.024;2023-12-28T14:39:43;10.00;99.90
52459;DHT22;38372;52.902;6.024;2023-12-28T14:42:09;10.00;99.90
52459;DHT22;38372;52.902;6.024;2023-12-28T14:44:36;10.00;99.90
52459;DHT22;38372;52.902;6.024;2023-12-28T14:47:02;10.00;99.90
52459;DHT22;38372;52.902;6.024;2023-12-28T14:49:27;10.10;99.90
52459;DHT22;38372;52.902;6.024;2023-12-28T14:51:53;10.10;99.90
52459;DHT22;38372;52.902;6.024;2023-12-28T14:54:19;10.10;99.90
52459;DHT22;38372;52.902;6.024;2023-12-28T14:56:45;10.10;99.90
52459;DHT22;38372;52.902;6.024;2023-12-28T14:59:11;10.10;99.90
52459;DHT22;38372;52.902;6.024;2023-12-28T15:01:37;10.20;99.90
52459;DHT22;38372;52.902;6.024;2023-12-28T15:04:03;10.20;99.90
52459;DHT22;38372;52.902;6.024;2023-12-28T15:06:29;10.30;99.90
52459;DHT22;38372;52.902;6.024;2023-12-28T15:08:55;10.30;99.90
52459;DHT22;38372;52.902;6.024;2023-12-28T15:11:21;10.30;99.90
52459;DHT22;38372;52.902;6.024;2023-12-28T15:13:47;10.40;99.90
52459;DHT22;38372;52.902;6.024;2023-12-28T15:16:13;10.40;99.90
52459;DHT22;38372;52.902;6.024;2023-12-28T15:18:40;10.40;99.90
52459;DHT22;38372;52.902;6.024;2023-12-28T15:21:06;10.40;99.90
52459;DHT22;38372;52.902;6.024;2023-12-28T15:23:32;10.40;99.90
52459;DHT22;38372;52.902;6.024;2023-12-28T15:25:58;10.40;99.90
52459;DHT22;38372;52.902;6.024;2023-12-28T15:28:36;10.40;99.90
52459;DHT22;38372;52.902;6.024;2023-12-28T15:31:02;10.40;99.90
52459;DHT22;38372;52.902;6.024;2023-12-28T15:33:29;10.40;99.90
52459;DHT22;38372;52.902;6.024;2023-12-28T15:35:54;10.40;99.90
52459;DHT22;38372;52.902;6.024;2023-12-28T15:38:22;10.40;99.90
52459;DHT22;38372;52.902;6.024;2023-12-28T15:40:48;10.40;99.90